Time;durP1;ratioP1;P1;durP2;ratioP2;P2;SDS_P1;SDS_P2;PMS_P1;PMS_P2;Temp;Humidity;BMP_temperature;BMP_pressure;BME280_temperature;BME280_humidity;BME280_pressure;Samples;Min_cycle;Max_cycle;Signal;HPM_P1;HPM_P2
2022/01/08 00:01:21;;;;;;;1.20;1.02;;;3.10;99.90;;;;;;5093477;28;20187;-68
2022/01/08 00:03:48;;;;;;;1.67;1.15;;;3.20;99.90;;;;;;5096361;28;20176;-68
2022/01/08 00:06:14;;;;;;;2.45;1.25;;;3.20;99.90;;;;;;5097640;28;20180;-67
2022/01/08 00:08:40;;;;;;;1.63;1.13;;;3.20;99.90;;;;;;5093870;28;20183;-68
2022/01/08 00:11:07;;;;;;;1.95;0.93;;;3.20;99.90;;;;;;5093182;28;20532;-67
2022/01/08 00:13:34;;;;;;;3.60;0.88;;;3.30;99.90;;;;;;5093568;28;20560;-68
2022/01/08 00:15:59;;;;;;;1.13;1.00;;;3.30;99.90;;;;;;5093557;28;20624;-68
2022/01/08 00:18:25;;;;;;;1.70;0.90;;;3.30;99.90;;;;;;5093234;28;20184;-68
2022/01/08 00:20:51;;;;;;;2.75;1.50;;;3.30;99.90;;;;;;5092979;28;20187;-68
2022/01/08 00:23:16;;;;;;;1.63;1.33;;;3.30;99.90;;;;;;5093686;28;20203;-68
2022/01/08 00:25:42;;;;;;;2.13;1.40;;;3.30;99.90;;;;;;5092864;28;20191;-68
2022/01/08 00:28:07;;;;;;;2.88;1.15;;;3.30;99.90;;;;;;5093410;28;20266;-69
2022/01/08 00:30:33;;;;;;;2.08;1.23;;;3.30;99.90;;;;;;5092882;28;20191;-68
2022/01/08 00:32:59;;;;;;;1.33;1.10;;;3.30;99.90;;;;;;5085046;28;20216;-68
2022/01/08 00:35:25;;;;;;;1.17;1.00;;;3.30;99.90;;;;;;5090668;28;20180;-68
2022/01/08 00:37:51;;;;;;;1.85;1.10;;;3.30;99.90;;;;;;5092803;28;20180;-68
2022/01/08 00:40:16;;;;;;;1.27;0.93;;;3.30;99.90;;;;;;5092105;28;20652;-68
2022/01/08 00:42:42;;;;;;;1.63;1.17;;;3.30;99.90;;;;;;5092901;28;20226;-67
2022/01/08 00:45:08;;;;;;;1.70;1.25;;;3.40;99.90;;;;;;5092759;28;20180;-67
2022/01/08 00:47:34;;;;;;;4.05;2.00;;;3.30;99.90;;;;;;5092350;28;20191;-67
2022/01/08 00:50:00;;;;;;;3.43;1.40;;;3.30;99.90;;;;;;5092929;28;20559;-68
2022/01/08 00:52:26;;;;;;;2.05;1.48;;;3.40;99.90;;;;;;5092503;28;20700;-68
2022/01/08 00:54:51;;;;;;;3.28;1.50;;;3.30;99.90;;;;;;5092891;28;20188;-68
2022/01/08 00:57:17;;;;;;;3.00;1.30;;;3.40;99.90;;;;;;5092366;28;20745;-68
2022/01/08 00:59:42;;;;;;;2.30;1.20;;;3.40;99.90;;;;;;5072566;28;20275;-68
2022/01/08 01:02:08;;;;;;;2.20;1.30;;;3.40;99.90;;;;;;5063160;28;20217;-68
2022/01/08 01:04:34;;;;;;;3.58;1.40;;;3.40;99.90;;;;;;5069707;28;20532;-67
2022/01/08 01:07:00;;;;;;;3.75;1.45;;;3.40;99.90;;;;;;5072240;28;20185;-67
2022/01/08 01:09:25;;;;;;;1.58;0.98;;;3.30;99.90;;;;;;5072546;28;20824;-67
2022/01/08 01:11:55;;;;;;;2.47;1.17;;;3.30;99.90;;;;;;5071899;28;20231;-68
2022/01/08 01:14:22;;;;;;;2.97;1.25;;;3.30;99.90;;;;;;5072639;28;20599;-68
2022/01/08 01:16:48;;;;;;;1.80;1.20;;;3.30;99.90;;;;;;5070537;28;20174;-68
2022/01/08 01:19:13;;;;;;;2.15;1.60;;;3.30;99.90;;;;;;5070303;28;20234;-68
2022/01/08 01:21:39;;;;;;;1.20;1.10;;;3.30;99.90;;;;;;5068636;28;20230;-68
2022/01/08 01:24:11;;;;;;;1.45;1.20;;;3.20;99.90;;;;;;5072291;28;20678;-68
2022/01/08 01:26:41;;;;;;;1.10;1.05;;;3.20;99.90;;;;;;5072065;28;20185;-68
2022/01/08 01:48:03;;;;;;;1.60;1.10;;;3.30;99.90;;;;;;5071700;28;20207;-67
2022/01/08 01:50:29;;;;;;;1.52;1.15;;;3.20;99.90;;;;;;5071887;28;20208;-67
2022/01/08 01:52:54;;;;;;;2.28;1.00;;;3.20;99.90;;;;;;5071692;28;20575;-68
2022/01/08 01:55:20;;;;;;;2.22;1.10;;;3.20;99.90;;;;;;5070229;28;20172;-68
2022/01/08 01:57:48;;;;;;;2.10;1.23;;;3.20;99.90;;;;;;5075773;28;20566;-67
2022/01/08 02:00:14;;;;;;;1.48;1.17;;;3.20;99.90;;;;;;5091723;28;20667;-68
2022/01/08 02:02:40;;;;;;;1.50;1.17;;;3.20;99.90;;;;;;5091802;28;20179;-68
2022/01/08 02:05:06;;;;;;;2.90;1.50;;;3.20;99.90;;;;;;5092062;28;20313;-67
2022/01/08 02:07:32;;;;;;;1.30;1.10;;;3.20;99.90;;;;;;5090045;28;20545;-67
2022/01/08 02:09:58;;;;;;;2.33;1.48;;;3.20;99.90;;;;;;5091723;28;20190;-68
2022/01/08 02:12:23;;;;;;;2.33;1.23;;;3.20;99.90;;;;;;5091778;28;20208;-68
2022/01/08 02:14:50;;;;;;;1.52;1.20;;;3.20;99.90;;;;;;5091575;28;20180;-68
2022/01/08 02:17:16;;;;;;;2.45;1.10;;;3.20;99.90;;;;;;5091976;28;20255;-68
2022/01/08 02:19:42;;;;;;;1.70;1.60;;;3.20;99.90;;;;;;5090411;28;20184;-67
2022/01/08 02:22:15;;;;;;;1.23;1.13;;;3.20;99.90;;;;;;5090679;28;20187;-68
2022/01/08 02:24:41;;;;;;;2.78;1.77;;;3.20;99.90;;;;;;5088759;28;20180;-68
2022/01/08 02:27:06;;;;;;;1.63;1.30;;;3.20;99.90;;;;;;5089141;28;20675;-68
2022/01/08 02:29:32;;;;;;;4.78;1.42;;;3.20;99.90;;;;;;5089061;28;20177;-68
2022/01/08 02:32:04;;;;;;;2.80;1.52;;;3.20;99.90;;;;;;5101139;28;20652;-68
2022/01/08 02:34:30;;;;;;;4.05;1.42;;;3.20;99.90;;;;;;5084754;28;20271;-67
2022/01/08 02:36:57;;;;;;;1.15;1.08;;;3.20;99.90;;;;;;5076696;28;20203;-68
2022/01/08 02:39:23;;;;;;;2.17;1.10;;;3.20;99.90;;;;;;5076017;28;20181;-68
2022/01/08 02:41:54;;;;;;;3.03;1.30;;;3.10;99.90;;;;;;5091967;28;20655;-68
2022/01/08 02:44:19;;;;;;;5.32;1.50;;;3.10;99.90;;;;;;5091390;28;20586;-68
2022/01/08 02:46:45;;;;;;;1.85;1.38;;;3.10;99.90;;;;;;5091470;28;20192;-68
2022/01/08 02:49:11;;;;;;;2.67;1.50;;;3.10;99.90;;;;;;5090506;28;20168;-67
2022/01/08 02:51:37;;;;;;;1.60;1.35;;;3.10;99.90;;;;;;5089698;28;20191;-67
2022/01/08 02:54:10;;;;;;;2.73;1.80;;;3.10;99.90;;;;;;5091547;28;20253;-67
2022/01/08 02:56:40;;;;;;;1.50;1.40;;;3.10;99.90;;;;;;5102146;28;20252;-67
2022/01/08 02:59:06;;;;;;;3.45;1.58;;;3.10;99.90;;;;;;5111981;28;20732;-67
2022/01/08 03:01:31;;;;;;;2.10;1.55;;;3.10;99.90;;;;;;5102100;28;20173;-67
2022/01/08 03:03:57;;;;;;;3.22;1.77;;;3.10;99.90;;;;;;5094536;28;20700;-67
2022/01/08 03:06:23;;;;;;;4.05;2.03;;;3.10;99.90;;;;;;5114184;28;20262;-67
2022/01/08 03:08:49;;;;;;;4.70;2.60;;;3.10;99.90;;;;;;5106227;28;20259;-67
2022/01/08 03:11:14;;;;;;;3.90;1.98;;;3.10;99.90;;;;;;5095027;28;20243;-67
2022/01/08 03:13:40;;;;;;;5.40;2.40;;;3.20;99.90;;;;;;5113639;28;20226;-66
2022/01/08 03:16:05;;;;;;;5.40;2.30;;;3.10;99.90;;;;;;5105759;28;20695;-67
2022/01/08 03:18:32;;;;;;;2.43;1.70;;;3.10;99.90;;;;;;5095186;28;20184;-66
2022/01/08 03:21:04;;;;;;;1.48;1.38;;;3.00;99.90;;;;;;5101058;28;20206;-66
2022/01/08 03:23:38;;;;;;;2.23;1.70;;;3.00;99.90;;;;;;5115309;28;20184;-66
2022/01/08 03:26:05;;;;;;;3.00;1.80;;;3.00;99.90;;;;;;5096824;28;20245;-66
2022/01/08 03:28:31;;;;;;;2.53;2.07;;;2.90;99.90;;;;;;5094747;28;20195;-66
2022/01/08 03:30:56;;;;;;;2.17;1.73;;;2.80;99.90;;;;;;5111004;28;20179;-66
2022/01/08 03:33:22;;;;;;;2.20;1.73;;;2.80;99.90;;;;;;5098678;28;20224;-66
2022/01/08 03:35:47;;;;;;;4.13;1.88;;;2.70;99.90;;;;;;5088287;28;20183;-66
2022/01/08 03:38:13;;;;;;;3.60;1.80;;;2.70;99.90;;;;;;5094554;28;20321;-66
2022/01/08 03:40:38;;;;;;;5.97;1.90;;;2.60;99.90;;;;;;5105798;28;20243;-66
2022/01/08 03:43:04;;;;;;;1.97;1.70;;;2.50;99.90;;;;;;5093796;28;20183;-66
2022/01/08 03:45:29;;;;;;;3.33;2.03;;;2.50;99.90;;;;;;5094358;28;20192;-66
2022/01/08 03:48:06;;;;;;;2.57;1.80;;;2.40;99.90;;;;;;5094589;28;20190;-66
2022/01/08 03:50:32;;;;;;;3.67;1.90;;;2.40;99.90;;;;;;5093965;28;20250;-66
2022/01/08 03:52:57;;;;;;;1.93;1.73;;;2.40;99.90;;;;;;5094149;28;20253;-66
2022/01/08 03:55:23;;;;;;;2.30;1.83;;;2.40;99.90;;;;;;5093551;28;20176;-66
2022/01/08 03:57:48;;;;;;;1.93;1.73;;;2.40;99.90;;;;;;5092403;28;20208;-66
2022/01/08 04:00:15;;;;;;;3.47;1.80;;;2.40;99.90;;;;;;5106969;28;20185;-66
2022/01/08 04:02:41;;;;;;;1.50;1.40;;;2.40;99.90;;;;;;5094229;28;20253;-66
2022/01/08 04:05:06;;;;;;;2.07;1.57;;;2.40;99.90;;;;;;5093951;28;20180;-67
2022/01/08 04:07:32;;;;;;;2.30;1.70;;;2.40;99.90;;;;;;5113280;28;20271;-66
2022/01/08 04:09:57;;;;;;;5.07;1.47;;;2.50;99.90;;;;;;5105232;28;20183;-67
2022/01/08 04:12:34;;;;;;;1.70;1.50;;;2.50;99.90;;;;;;5093946;28;20200;-67
2022/01/08 04:15:08;;;;;;;1.77;1.33;;;2.50;99.90;;;;;;5112976;28;20198;-66
2022/01/08 04:17:33;;;;;;;1.58;0.82;;;2.50;99.90;;;;;;5114259;28;20228;-66
2022/01/08 04:19:59;;;;;;;1.20;1.10;;;2.50;99.90;;;;;;5094119;28;20569;-66
2022/01/08 04:22:25;;;;;;;2.40;0.82;;;2.60;99.90;;;;;;5102414;28;20645;-66
2022/01/08 04:24:51;;;;;;;2.97;1.00;;;2.70;99.90;;;;;;5114172;28;20229;-67
2022/01/08 04:27:16;;;;;;;0.53;0.50;;;2.70;99.90;;;;;;5106396;28;20180;-67
2022/01/08 04:29:42;;;;;;;0.53;0.43;;;2.90;99.90;;;;;;5093661;28;20176;-66
2022/01/08 04:32:08;;;;;;;0.40;0.40;;;2.90;99.90;;;;;;5109022;28;20187;-67
2022/01/08 04:34:34;;;;;;;0.32;0.32;;;2.90;99.90;;;;;;5093592;28;20190;-66
2022/01/08 04:37:00;;;;;;;0.20;0.20;;;3.00;99.90;;;;;;5093736;28;20168;-67
2022/01/08 04:39:27;;;;;;;0.63;0.35;;;3.00;99.90;;;;;;5109438;28;20191;-67
2022/01/08 04:41:53;;;;;;;1.00;0.30;;;3.00;99.90;;;;;;5101502;28;20180;-66
2022/01/08 04:44:18;;;;;;;0.50;0.50;;;3.00;99.90;;;;;;5093290;28;20199;-67
2022/01/08 04:46:44;;;;;;;0.50;0.50;;;3.00;99.90;;;;;;5102999;28;20202;-67
2022/01/08 04:49:10;;;;;;;0.40;0.40;;;2.90;99.90;;;;;;5113476;28;20270;-66
2022/01/08 04:51:36;;;;;;;0.50;0.50;;;2.90;99.90;;;;;;5093393;28;20183;-67
2022/01/08 04:54:01;;;;;;;0.70;0.70;;;2.90;99.90;;;;;;5093037;28;20580;-67
2022/01/08 04:56:27;;;;;;;0.98;0.90;;;2.90;99.90;;;;;;5110678;28;20171;-66
2022/01/08 04:58:53;;;;;;;0.43;0.43;;;2.80;99.90;;;;;;5093312;28;20222;-66
2022/01/08 05:01:18;;;;;;;1.57;0.73;;;2.80;99.90;;;;;;5092362;28;20183;-66
2022/01/08 05:03:44;;;;;;;0.87;0.83;;;2.80;99.90;;;;;;5095732;28;20176;-66
2022/01/08 05:06:10;;;;;;;1.50;1.10;;;2.80;99.90;;;;;;5092433;28;20172;-67
2022/01/08 05:08:36;;;;;;;2.07;1.50;;;2.80;99.90;;;;;;5092991;28;20187;-67
2022/01/08 05:11:01;;;;;;;2.97;1.93;;;2.70;99.90;;;;;;5092907;28;20654;-67
2022/01/08 05:13:27;;;;;;;1.10;1.00;;;2.80;99.90;;;;;;5106337;28;20254;-66
2022/01/08 05:15:52;;;;;;;2.33;1.47;;;2.70;99.90;;;;;;5094535;28;20211;-67
2022/01/08 05:18:18;;;;;;;1.20;1.10;;;2.70;99.90;;;;;;5092656;28;20688;-67
2022/01/08 05:20:52;;;;;;;1.50;1.23;;;2.70;99.90;;;;;;5103566;28;20176;-66
2022/01/08 05:23:18;;;;;;;4.47;1.80;;;2.70;99.90;;;;;;5112947;28;20664;-67
2022/01/08 05:25:44;;;;;;;1.15;1.15;;;2.70;99.90;;;;;;5100321;28;20184;-66
2022/01/08 05:28:09;;;;;;;2.40;1.43;;;2.70;99.90;;;;;;5092540;28;20212;-66
2022/01/08 05:30:35;;;;;;;1.10;1.00;;;2.60;99.90;;;;;;5102246;28;20258;-67
2022/01/08 05:33:00;;;;;;;1.90;0.90;;;2.60;99.90;;;;;;5104209;28;20214;-67
2022/01/08 05:35:27;;;;;;;0.80;0.80;;;2.60;99.90;;;;;;5092774;28;20667;-67
2022/01/08 05:37:53;;;;;;;1.35;0.70;;;2.60;99.90;;;;;;5092346;28;20538;-67
2022/01/08 05:40:19;;;;;;;0.70;0.70;;;2.50;99.90;;;;;;5110102;28;20191;-67
2022/01/08 05:42:45;;;;;;;0.85;0.85;;;2.50;99.90;;;;;;5104635;28;20270;-67
2022/01/08 05:45:11;;;;;;;0.80;0.80;;;2.40;99.90;;;;;;5101228;28;20733;-68
2022/01/08 05:47:37;;;;;;;1.63;0.80;;;2.40;99.90;;;;;;5106628;28;20229;-67
2022/01/08 05:50:06;;;;;;;0.60;0.60;;;2.30;99.90;;;;;;5092380;28;20172;-67
2022/01/08 05:52:31;;;;;;;0.80;0.60;;;2.30;99.90;;;;;;5107971;28;20222;-67
2022/01/08 05:54:57;;;;;;;1.30;0.80;;;2.20;99.90;;;;;;5097600;28;20172;-67
2022/01/08 05:57:22;;;;;;;0.47;0.47;;;2.10;99.90;;;;;;5097406;28;20793;-66
2022/01/08 05:59:48;;;;;;;0.57;0.57;;;2.10;99.90;;;;;;5112664;28;20218;-67
2022/01/08 06:02:13;;;;;;;0.80;0.80;;;2.10;99.90;;;;;;5108796;28;20582;-67
2022/01/08 06:04:39;;;;;;;0.80;0.80;;;2.10;99.90;;;;;;5090972;28;20582;-67
2022/01/08 06:07:05;;;;;;;0.80;0.80;;;2.10;99.90;;;;;;5093391;28;20214;-67
2022/01/08 06:09:30;;;;;;;1.00;0.77;;;2.10;99.90;;;;;;5099865;28;20195;-67
2022/01/08 06:11:56;;;;;;;0.80;0.80;;;2.10;99.90;;;;;;5090355;28;20215;-68
2022/01/08 06:14:22;;;;;;;0.80;0.80;;;2.10;99.90;;;;;;5096220;28;20245;-67
2022/01/08 06:16:49;;;;;;;0.80;0.80;;;2.10;99.90;;;;;;5090394;28;20184;-68
2022/01/08 06:19:15;;;;;;;0.83;0.80;;;2.10;99.90;;;;;;5091352;28;20195;-67
2022/01/08 06:21:41;;;;;;;1.30;1.20;;;2.10;99.90;;;;;;5091628;28;20172;-68
2022/01/08 06:24:07;;;;;;;0.60;0.60;;;2.00;99.90;;;;;;5091443;28;20183;-68
2022/01/08 06:26:32;;;;;;;0.93;0.90;;;2.10;99.90;;;;;;5091890;28;20654;-68
2022/01/08 06:28:59;;;;;;;1.10;1.00;;;2.00;99.90;;;;;;5091969;28;20204;-68
2022/01/08 06:31:24;;;;;;;1.70;0.93;;;2.00;99.90;;;;;;5092587;28;20195;-67
2022/01/08 06:33:51;;;;;;;1.30;1.20;;;2.00;99.90;;;;;;5091710;28;20220;-68
2022/01/08 06:36:19;;;;;;;1.20;1.10;;;2.00;99.90;;;;;;5094122;28;20202;-67
2022/01/08 06:38:46;;;;;;;0.70;0.70;;;2.00;99.90;;;;;;5098263;28;20184;-68
2022/01/08 06:41:12;;;;;;;2.37;1.80;;;2.10;99.90;;;;;;5104232;28;20173;-68
2022/01/08 06:43:37;;;;;;;1.73;1.30;;;2.10;99.90;;;;;;5095735;28;20183;-68
2022/01/08 06:46:03;;;;;;;5.00;1.30;;;2.10;99.90;;;;;;5109071;28;20193;-68
2022/01/08 06:48:28;;;;;;;1.20;1.10;;;2.10;99.90;;;;;;5112602;28;20188;-68
2022/01/08 06:50:54;;;;;;;2.43;1.33;;;2.10;99.90;;;;;;5095156;28;20267;-68
2022/01/08 06:53:19;;;;;;;5.07;1.27;;;2.10;99.90;;;;;;5107850;28;20211;-68
2022/01/08 06:55:45;;;;;;;1.90;1.70;;;2.10;99.90;;;;;;5102126;28;20196;-68
2022/01/08 06:58:10;;;;;;;3.13;1.70;;;2.10;99.90;;;;;;5094833;28;20254;-67
2022/01/08 07:00:36;;;;;;;6.80;2.73;;;2.10;99.90;;;;;;5095421;28;20240;-68
2022/01/08 07:03:02;;;;;;;4.33;2.70;;;2.10;99.90;;;;;;5095261;28;20211;-68
2022/01/08 07:05:28;;;;;;;5.83;3.73;;;2.10;99.90;;;;;;5112512;28;20192;-68
2022/01/08 07:07:54;;;;;;;5.97;3.70;;;2.10;99.90;;;;;;5095315;28;20188;-68
2022/01/08 07:10:20;;;;;;;4.73;2.87;;;2.10;99.90;;;;;;5095525;28;20206;-65
2022/01/08 07:12:46;;;;;;;3.60;2.33;;;2.20;99.90;;;;;;5109842;28;20310;-68
2022/01/08 07:15:12;;;;;;;3.70;2.80;;;2.20;99.90;;;;;;5096032;28;20176;-60
2022/01/08 07:17:39;;;;;;;6.43;3.33;;;2.20;99.90;;;;;;5096927;28;20275;-63
2022/01/08 07:20:05;;;;;;;4.03;2.57;;;2.20;99.90;;;;;;5115362;28;20183;-64
2022/01/08 07:22:31;;;;;;;3.27;2.20;;;2.10;99.90;;;;;;5101094;28;20188;-61
2022/01/08 07:24:56;;;;;;;3.27;2.20;;;2.20;99.90;;;;;;5115348;28;20175;-61
2022/01/08 07:27:22;;;;;;;5.00;2.80;;;2.20;99.90;;;;;;5102844;28;20183;-62
2022/01/08 07:29:47;;;;;;;5.20;2.93;;;2.20;99.90;;;;;;5094816;28;20184;-61
2022/01/08 07:32:13;;;;;;;3.17;2.20;;;2.20;99.90;;;;;;5101889;28;20180;-60
2022/01/08 07:34:38;;;;;;;3.97;2.40;;;2.20;99.90;;;;;;5094605;28;20184;-64
2022/01/08 07:37:04;;;;;;;3.10;1.97;;;2.20;99.90;;;;;;5101763;28;20548;-63
2022/01/08 07:39:29;;;;;;;4.20;2.13;;;2.20;99.90;;;;;;5114856;28;20179;-62
2022/01/08 07:41:55;;;;;;;4.03;2.50;;;2.10;99.90;;;;;;5101317;28;20184;-63
2022/01/08 07:44:21;;;;;;;3.60;2.53;;;2.10;99.90;;;;;;5100666;28;20191;-59
2022/01/08 07:46:46;;;;;;;3.87;2.53;;;2.10;99.90;;;;;;5112853;28;20196;-63
2022/01/08 07:49:12;;;;;;;4.50;2.20;;;2.20;99.90;;;;;;5096956;28;20555;-61
2022/01/08 07:51:37;;;;;;;3.63;2.10;;;2.20;99.90;;;;;;5094106;28;20570;-61
2022/01/08 07:54:03;;;;;;;6.93;2.57;;;2.20;99.90;;;;;;5094201;28;20214;-62
2022/01/08 07:56:28;;;;;;;4.37;2.33;;;2.20;99.90;;;;;;5094258;28;20184;-61
2022/01/08 07:58:54;;;;;;;5.05;2.60;;;2.20;99.90;;;;;;5094124;28;20238;-62
2022/01/08 08:01:21;;;;;;;3.67;2.37;;;2.20;99.90;;;;;;5094132;28;20187;-63
2022/01/08 08:03:47;;;;;;;4.80;2.30;;;2.20;99.90;;;;;;5094168;28;20223;-63
2022/01/08 08:06:12;;;;;;;3.47;1.90;;;2.20;99.90;;;;;;5094066;28;20211;-62
2022/01/08 08:08:38;;;;;;;2.77;1.70;;;2.20;99.90;;;;;;5094008;28;20184;-63
2022/01/08 08:11:03;;;;;;;2.23;1.80;;;2.20;99.90;;;;;;5094018;28;20172;-63
2022/01/08 08:13:29;;;;;;;1.73;1.63;;;2.30;99.90;;;;;;5095030;28;20204;-63
2022/01/08 08:15:54;;;;;;;2.60;1.30;;;2.30;99.90;;;;;;5114173;28;20578;-64
2022/01/08 08:18:20;;;;;;;2.50;1.40;;;2.30;99.90;;;;;;5113742;28;20176;-63
2022/01/08 08:20:46;;;;;;;1.40;1.30;;;2.30;99.90;;;;;;5093811;28;20180;-63
2022/01/08 08:23:11;;;;;;;1.50;1.40;;;2.40;99.90;;;;;;5093419;28;20284;-63
2022/01/08 08:25:37;;;;;;;3.10;1.40;;;2.30;99.90;;;;;;5111850;28;20171;-62
2022/01/08 08:28:06;;;;;;;5.00;1.47;;;2.30;99.90;;;;;;5106944;28;20179;-62
2022/01/08 08:30:35;;;;;;;2.77;1.27;;;2.40;99.90;;;;;;5106223;28;20168;-63
2022/01/08 08:33:01;;;;;;;1.33;1.17;;;2.40;99.90;;;;;;5086541;28;20216;-63
2022/01/08 08:35:27;;;;;;;4.90;2.20;;;2.40;99.90;;;;;;5095724;28;20176;-63
2022/01/08 08:37:53;;;;;;;4.07;1.40;;;2.50;99.90;;;;;;5088025;28;20231;-63
2022/01/08 08:40:18;;;;;;;2.30;1.30;;;2.50;99.90;;;;;;5077929;28;20616;-64
2022/01/08 08:42:44;;;;;;;5.27;2.30;;;2.50;99.90;;;;;;5093139;28;20177;-64
2022/01/08 08:45:11;;;;;;;1.60;1.30;;;2.60;99.90;;;;;;5091138;28;20179;-63
2022/01/08 08:47:39;;;;;;;3.17;1.47;;;2.60;99.90;;;;;;5102725;28;20180;-63
2022/01/08 08:50:06;;;;;;;2.83;1.50;;;2.50;99.90;;;;;;5097202;28;20167;-64
2022/01/08 08:52:32;;;;;;;3.40;1.87;;;2.60;99.90;;;;;;5097082;28;20188;-63
2022/01/08 08:54:58;;;;;;;1.63;1.53;;;2.60;99.90;;;;;;5092914;28;20237;-64
2022/01/08 08:57:23;;;;;;;3.23;1.40;;;2.60;99.90;;;;;;5092541;28;20196;-63
2022/01/08 08:59:49;;;;;;;3.20;1.37;;;2.60;99.90;;;;;;5104914;28;20209;-63
2022/01/08 09:02:14;;;;;;;4.73;1.70;;;2.60;99.90;;;;;;5109027;28;20180;-63
2022/01/08 09:04:41;;;;;;;2.57;1.50;;;2.60;99.90;;;;;;5093898;28;20275;-63
2022/01/08 09:07:08;;;;;;;3.03;1.40;;;2.60;99.90;;;;;;5091701;28;20179;-63
2022/01/08 09:09:34;;;;;;;2.42;1.50;;;2.60;99.90;;;;;;5092627;28;20172;-63
2022/01/08 09:11:59;;;;;;;2.43;1.63;;;2.60;99.90;;;;;;5092559;28;20208;-63
2022/01/08 09:14:25;;;;;;;2.17;1.50;;;2.70;99.90;;;;;;5096775;28;20243;-63
2022/01/08 09:16:55;;;;;;;3.97;1.83;;;2.70;99.90;;;;;;5092486;28;20274;-63
2022/01/08 09:19:21;;;;;;;4.67;2.00;;;2.70;99.90;;;;;;5097109;28;20187;-63
2022/01/08 09:21:48;;;;;;;2.90;1.83;;;2.70;99.90;;;;;;5091686;28;20172;-63
2022/01/08 09:24:14;;;;;;;2.67;1.70;;;2.70;99.90;;;;;;5095497;28;20202;-62
2022/01/08 09:26:40;;;;;;;2.88;2.20;;;2.70;99.90;;;;;;5092550;28;20249;-63
2022/01/08 09:29:06;;;;;;;3.90;1.90;;;2.80;99.90;;;;;;5092199;28;20180;-62
2022/01/08 09:31:32;;;;;;;4.33;2.00;;;2.80;99.90;;;;;;5102294;28;20180;-66
2022/01/08 09:33:58;;;;;;;2.60;1.80;;;2.90;99.90;;;;;;5092407;28;20219;-59
2022/01/08 09:36:24;;;;;;;2.73;2.27;;;3.10;99.90;;;;;;5092051;28;20180;-62
2022/01/08 09:38:51;;;;;;;3.13;1.97;;;3.20;99.90;;;;;;5091091;28;20257;-65
2022/01/08 09:41:17;;;;;;;4.40;1.92;;;3.40;99.90;;;;;;5092196;28;20175;-62
2022/01/08 09:43:42;;;;;;;4.90;1.90;;;3.50;99.90;;;;;;5091781;28;20180;-62
2022/01/08 09:46:08;;;;;;;5.20;1.93;;;3.50;99.90;;;;;;5092117;28;20255;-62
2022/01/08 09:48:34;;;;;;;6.72;2.50;;;3.50;99.90;;;;;;5092348;28;20168;-62
2022/01/08 09:51:00;;;;;;;10.18;2.22;;;3.60;99.90;;;;;;5092132;28;20504;-62
2022/01/08 09:53:25;;;;;;;4.82;2.10;;;3.60;99.90;;;;;;5091603;28;20215;-62
2022/01/08 09:55:51;;;;;;;6.18;2.50;;;3.60;99.90;;;;;;5091900;28;20184;-62
2022/01/08 09:58:16;;;;;;;5.20;2.33;;;3.60;99.90;;;;;;5091945;28;20714;-62
2022/01/08 10:00:45;;;;;;;7.33;2.43;;;3.70;99.90;;;;;;5091890;28;20222;-62
2022/01/08 10:03:31;;;;;;;3.00;2.00;;;3.80;99.90;;;;;;5091928;28;20179;-63
2022/01/08 10:06:01;;;;;;;3.55;1.85;;;3.90;99.90;;;;;;5091980;28;20201;-62
2022/01/08 10:08:28;;;;;;;4.50;2.17;;;3.90;99.90;;;;;;5091452;28;20599;-62
2022/01/08 10:11:06;;;;;;;7.80;2.38;;;3.90;99.90;;;;;;5092174;28;20225;-62
2022/01/08 10:13:39;;;;;;;8.25;2.45;;;3.90;99.90;;;;;;5095951;28;20207;-62
2022/01/08 10:18:54;;;;;;;6.68;2.30;;;4.00;99.90;;;;;;5076138;28;20172;-63
2022/01/08 10:21:23;;;;;;;4.43;2.90;;;4.10;99.90;;;;;;5078181;28;20180;-63
2022/01/08 10:24:04;;;;;;;4.72;2.47;;;4.10;99.90;;;;;;5095455;28;20209;-62
2022/01/08 10:26:33;;;;;;;20.40;11.20;;;4.00;99.90;;;;;;5094675;28;20187;-59
2022/01/08 10:29:01;;;;;;;7.55;3.03;;;4.80;99.90;;;;;;5095511;28;20188;-62
2022/01/08 10:31:38;;;;;;;5.22;2.13;;;5.20;99.90;;;;;;5094923;28;20277;-61
2022/01/08 10:34:08;;;;;;;3.60;2.08;;;4.90;99.90;;;;;;5094960;28;20219;-61
2022/01/08 10:36:35;;;;;;;4.60;2.40;;;4.60;99.90;;;;;;5091243;28;20533;-60
2022/01/08 10:39:05;;;;;;;2.78;1.80;;;4.40;99.90;;;;;;5102197;28;20184;-61
2022/01/08 10:41:30;;;;;;;3.28;2.03;;;4.20;99.90;;;;;;5095764;28;20185;-60
2022/01/08 10:44:14;;;;;;;4.43;1.98;;;4.10;99.90;;;;;;5095715;28;20643;-62
2022/01/08 10:46:45;;;;;;;5.40;2.15;;;4.10;99.90;;;;;;5095317;28;20180;-60
2022/01/08 10:49:14;;;;;;;8.02;2.45;;;4.10;99.90;;;;;;5095555;28;20168;-60
2022/01/08 10:51:40;;;;;;;7.22;1.98;;;4.20;99.90;;;;;;5088687;28;20195;-60
2022/01/08 10:54:12;;;;;;;6.88;1.77;;;4.30;99.90;;;;;;5095443;28;20478;-60
2022/01/08 10:56:46;;;;;;;7.35;2.33;;;4.40;99.90;;;;;;5094375;28;20180;-60
2022/01/08 10:59:23;;;;;;;16.00;7.30;;;4.40;99.90;;;;;;5095154;28;20273;-57
2022/01/08 11:01:54;;;;;;;6.40;1.67;;;4.60;99.90;;;;;;5095138;28;20183;-57
2022/01/08 11:04:42;;;;;;;5.57;1.83;;;4.60;99.90;;;;;;5095225;28;20267;-57
2022/01/08 11:07:10;;;;;;;4.50;1.60;;;4.60;99.90;;;;;;5095097;28;20267;-58
2022/01/08 11:09:37;;;;;;;2.97;1.88;;;4.40;99.90;;;;;;5095318;28;20574;-58
2022/01/08 11:12:06;;;;;;;9.03;2.30;;;4.20;99.90;;;;;;5095093;28;20638;-58
2022/01/08 11:17:16;;;;;;;4.10;2.30;;;4.10;99.90;;;;;;5095144;28;20176;-59
2022/01/08 11:19:50;;;;;;;4.97;1.60;;;4.10;99.90;;;;;;5093894;28;20176;-59
2022/01/08 11:22:19;;;;;;;5.88;1.83;;;4.00;99.90;;;;;;5095451;28;20172;-59
2022/01/08 11:24:51;;;;;;;4.70;1.45;;;3.90;99.90;;;;;;5093684;28;20191;-58
2022/01/08 11:27:33;;;;;;;6.85;2.33;;;3.80;99.90;;;;;;5101848;28;20180;-58
2022/01/08 11:30:11;;;;;;;2.00;1.70;;;3.70;99.90;;;;;;5115375;28;20712;-59
2022/01/08 11:32:39;;;;;;;2.40;2.08;;;3.70;99.90;;;;;;5074604;28;20220;-58
2022/01/08 11:35:07;;;;;;;6.22;2.00;;;4.00;99.90;;;;;;5082217;28;20184;-58
2022/01/08 11:37:33;;;;;;;2.40;1.60;;;4.20;99.90;;;;;;5094538;28;20176;-58
2022/01/08 11:40:07;;;;;;;9.83;2.00;;;4.30;99.90;;;;;;5094380;28;20195;-59
2022/01/08 11:42:35;;;;;;;4.47;1.70;;;4.30;99.90;;;;;;5094110;28;20193;-59
2022/01/08 11:45:02;;;;;;;4.22;1.90;;;4.20;99.90;;;;;;5094128;28;20226;-59
2022/01/08 11:47:30;;;;;;;3.90;1.70;;;4.10;99.90;;;;;;5098678;28;20179;-58
2022/01/08 11:49:58;;;;;;;3.40;1.80;;;4.00;99.90;;;;;;5101975;28;20292;-59
2022/01/08 11:52:24;;;;;;;2.97;1.73;;;4.10;99.90;;;;;;5094097;28;20700;-59
2022/01/08 11:54:52;;;;;;;2.70;1.63;;;4.20;99.90;;;;;;5092930;28;20180;-60
2022/01/08 11:57:29;;;;;;;4.45;1.70;;;4.30;99.90;;;;;;5093986;28;20173;-59
2022/01/08 11:59:59;;;;;;;3.20;1.98;;;4.40;99.90;;;;;;5094225;28;20200;-59
2022/01/08 12:02:35;;;;;;;5.07;1.60;;;4.50;99.90;;;;;;5094129;28;20164;-59
2022/01/08 12:05:01;;;;;;;6.88;1.90;;;4.50;99.90;;;;;;5093914;28;20168;-59
2022/01/08 12:07:36;;;;;;;5.38;2.25;;;4.50;99.90;;;;;;5093653;28;20544;-59
2022/01/08 12:10:13;;;;;;;24.60;3.17;;;4.60;99.90;;;;;;5094402;28;20180;-59
2022/01/08 12:12:46;;;;;;;10.98;3.70;;;4.70;99.90;;;;;;5092802;28;20196;-59
2022/01/08 12:15:13;;;;;;;3.25;1.30;;;4.70;99.90;;;;;;5093718;28;20180;-59
2022/01/08 12:17:55;;;;;;;3.45;1.25;;;4.60;99.90;;;;;;5093826;28;20168;-58
2022/01/08 12:20:59;;;;;;;2.60;1.40;;;4.60;99.90;;;;;;5093940;28;20635;-59
2022/01/08 12:23:36;;;;;;;3.92;1.00;;;4.60;99.90;;;;;;5031735;28;20709;-58
2022/01/08 12:26:04;;;;;;;3.83;1.50;;;4.50;99.90;;;;;;5031384;28;20284;-59
2022/01/08 12:28:46;;;;;;;1.77;1.30;;;4.30;99.90;;;;;;5054324;28;20224;-60
2022/01/08 12:31:37;;;;;;;3.42;1.77;;;4.10;99.90;;;;;;5113773;28;20630;-59
2022/01/08 12:34:20;;;;;;;1.70;1.50;;;4.00;99.90;;;;;;5096173;28;20558;-59
2022/01/08 12:37:02;;;;;;;1.30;1.20;;;3.90;99.90;;;;;;5079853;28;20184;-59
2022/01/08 12:39:43;;;;;;;14.98;2.75;;;3.90;99.90;;;;;;5092998;28;20172;-59
2022/01/08 12:42:24;;;;;;;11.57;2.75;;;3.90;99.90;;;;;;5092993;28;20180;-59
2022/01/08 12:45:30;;;;;;;3.25;1.80;;;3.90;99.90;;;;;;5093286;28;20176;-59
2022/01/08 12:48:04;;;;;;;8.05;3.03;;;4.00;99.90;;;;;;5084366;28;20684;-59
2022/01/08 12:50:35;;;;;;;7.55;3.88;;;4.00;99.90;;;;;;5092283;28;20192;-58
2022/01/08 12:53:06;;;;;;;8.82;3.67;;;4.10;99.90;;;;;;5092832;28;20307;-59
2022/01/08 12:55:41;;;;;;;7.28;1.80;;;4.20;99.90;;;;;;5092756;28;20654;-59
2022/01/08 12:58:14;;;;;;;2.75;1.13;;;4.20;99.90;;;;;;5091566;28;20237;-59
2022/01/08 13:01:12;;;;;;;4.25;2.30;;;4.10;99.90;;;;;;5091734;28;20544;-59
2022/01/08 13:03:44;;;;;;;5.65;1.90;;;4.20;99.90;;;;;;5091706;28;20229;-59
2022/01/08 13:06:12;;;;;;;7.25;1.60;;;4.20;99.90;;;;;;5092733;28;20179;-60
2022/01/08 13:08:40;;;;;;;3.00;1.77;;;4.10;99.90;;;;;;5092586;28;20184;-60
2022/01/08 13:11:09;;;;;;;2.45;1.50;;;4.10;99.90;;;;;;5092813;28;20165;-60
2022/01/08 13:13:41;;;;;;;3.88;2.40;;;4.00;99.90;;;;;;5097211;28;20269;-59
2022/01/08 13:16:12;;;;;;;3.80;2.00;;;4.00;99.90;;;;;;5099573;28;20172;-60
2022/01/08 13:18:38;;;;;;;3.88;1.75;;;4.00;99.90;;;;;;5092616;28;20188;-59
2022/01/08 13:21:05;;;;;;;1.75;1.45;;;4.00;99.90;;;;;;5092269;28;20531;-59
2022/01/08 13:23:31;;;;;;;2.25;1.55;;;4.00;99.90;;;;;;5092611;28;20183;-59
2022/01/08 13:25:58;;;;;;;3.20;1.77;;;4.00;99.90;;;;;;5092660;28;20164;-60